sensor_id;sensor_type;location;lat;lon;timestamp;temperature;humidity
26703;DHT22;14316;51.074;3.704;2023-04-01T00:00:56;9.40;99.90
26703;DHT22;14316;51.074;3.704;2023-04-01T00:03:23;9.40;99.90
26703;DHT22;14316;51.074;3.704;2023-04-01T00:05:50;9.40;99.90
26703;DHT22;14316;51.074;3.704;2023-04-01T00:08:17;9.50;99.90
26703;DHT22;14316;51.074;3.704;2023-04-01T00:10:43;9.40;99.90
26703;DHT22;14316;51.074;3.704;2023-04-01T00:13:10;9.40;99.90
26703;DHT22;14316;51.074;3.704;2023-04-01T00:15:36;9.40;99.90
26703;DHT22;14316;51.074;3.704;2023-04-01T00:18:02;9.40;99.90
26703;DHT22;14316;51.074;3.704;2023-04-01T00:20:29;9.40;99.90
26703;DHT22;14316;51.074;3.704;2023-04-01T00:22:55;9.40;99.90
26703;DHT22;14316;51.074;3.704;2023-04-01T00:25:23;9.40;99.90
26703;DHT22;14316;51.074;3.704;2023-04-01T00:27:49;9.40;99.90
26703;DHT22;14316;51.074;3.704;2023-04-01T00:30:16;9.40;99.90
26703;DHT22;14316;51.074;3.704;2023-04-01T00:32:43;9.40;99.90
26703;DHT22;14316;51.074;3.704;2023-04-01T00:35:09;9.40;99.90
26703;DHT22;14316;51.074;3.704;2023-04-01T00:37:37;9.40;99.90
26703;DHT22;14316;51.074;3.704;2023-04-01T00:40:06;9.40;99.90
26703;DHT22;14316;51.074;3.704;2023-04-01T00:42:33;9.30;99.90
26703;DHT22;14316;51.074;3.704;2023-04-01T00:45:27;9.30;99.90
26703;DHT22;14316;51.074;3.704;2023-04-01T00:47:54;9.30;99.90
26703;DHT22;14316;51.074;3.704;2023-04-01T00:50:22;9.30;99.90
26703;DHT22;14316;51.074;3.704;2023-04-01T00:52:50;9.30;99.90
26703;DHT22;14316;51.074;3.704;2023-04-01T00:55:18;9.30;99.90
26703;DHT22;14316;51.074;3.704;2023-04-01T00:57:47;9.30;99.90
26703;DHT22;14316;51.074;3.704;2023-04-01T01:00:15;9.20;99.90
26703;DHT22;14316;51.074;3.704;2023-04-01T01:02:43;9.20;99.90
26703;DHT22;14316;51.074;3.704;2023-04-01T01:05:14;9.20;99.90
26703;DHT22;14316;51.074;3.704;2023-04-01T01:08:01;9.10;99.90
26703;DHT22;14316;51.074;3.704;2023-04-01T01:10:34;9.20;99.90
26703;DHT22;14316;51.074;3.704;2023-04-01T01:13:11;9.10;99.90
26703;DHT22;14316;51.074;3.704;2023-04-01T01:15:46;9.00;99.90
26703;DHT22;14316;51.074;3.704;2023-04-01T01:37:15;9.00;99.90
26703;DHT22;14316;51.074;3.704;2023-04-01T01:39:43;9.00;99.90
26703;DHT22;14316;51.074;3.704;2023-04-01T01:42:13;9.00;99.90
26703;DHT22;14316;51.074;3.704;2023-04-01T01:44:42;9.00;99.90
26703;DHT22;14316;51.074;3.704;2023-04-01T01:47:10;9.00;99.90
26703;DHT22;14316;51.074;3.704;2023-04-01T01:49:37;9.00;99.90
26703;DHT22;14316;51.074;3.704;2023-04-01T01:52:04;9.00;99.90
26703;DHT22;14316;51.074;3.704;2023-04-01T01:54:30;9.00;99.90
26703;DHT22;14316;51.074;3.704;2023-04-01T01:57:06;9.00;99.90
26703;DHT22;14316;51.074;3.704;2023-04-01T01:59:36;9.00;99.90
26703;DHT22;14316;51.074;3.704;2023-04-01T02:02:03;9.10;99.90
26703;DHT22;14316;51.074;3.704;2023-04-01T02:04:38;9.10;99.90
26703;DHT22;14316;51.074;3.704;2023-04-01T02:07:12;9.00;99.90
26703;DHT22;14316;51.074;3.704;2023-04-01T02:09:40;9.00;99.90
26703;DHT22;14316;51.074;3.704;2023-04-01T02:12:08;9.00;99.90
26703;DHT22;14316;51.074;3.704;2023-04-01T02:15:00;9.00;99.90
26703;DHT22;14316;51.074;3.704;2023-04-01T02:17:32;9.00;99.90
26703;DHT22;14316;51.074;3.704;2023-04-01T02:22:38;9.00;99.90
26703;DHT22;14316;51.074;3.704;2023-04-01T02:25:13;9.10;99.90
26703;DHT22;14316;51.074;3.704;2023-04-01T02:27:40;9.00;99.90
26703;DHT22;14316;51.074;3.704;2023-04-01T02:30:08;9.00;99.90
26703;DHT22;14316;51.074;3.704;2023-04-01T02:32:37;9.00;99.90
26703;DHT22;14316;51.074;3.704;2023-04-01T02:35:06;9.00;99.90
26703;DHT22;14316;51.074;3.704;2023-04-01T02:37:33;9.00;99.90
26703;DHT22;14316;51.074;3.704;2023-04-01T02:40:07;9.00;99.90
26703;DHT22;14316;51.074;3.704;2023-04-01T02:42:34;9.00;99.90
26703;DHT22;14316;51.074;3.704;2023-04-01T02:45:00;9.10;99.90
26703;DHT22;14316;51.074;3.704;2023-04-01T02:47:27;9.10;99.90
26703;DHT22;14316;51.074;3.704;2023-04-01T02:49:53;9.00;99.90
26703;DHT22;14316;51.074;3.704;2023-04-01T02:52:24;9.00;99.90
26703;DHT22;14316;51.074;3.704;2023-04-01T02:54:50;9.00;99.90
26703;DHT22;14316;51.074;3.704;2023-04-01T02:57:17;9.00;99.90
26703;DHT22;14316;51.074;3.704;2023-04-01T02:59:43;9.00;99.90
26703;DHT22;14316;51.074;3.704;2023-04-01T03:02:09;9.00;99.90
26703;DHT22;14316;51.074;3.704;2023-04-01T03:04:35;9.00;99.90
26703;DHT22;14316;51.074;3.704;2023-04-01T03:07:01;9.00;99.90
26703;DHT22;14316;51.074;3.704;2023-04-01T03:09:28;9.00;99.90
26703;DHT22;14316;51.074;3.704;2023-04-01T03:11:54;9.00;99.90
26703;DHT22;14316;51.074;3.704;2023-04-01T03:14:20;9.00;99.90
26703;DHT22;14316;51.074;3.704;2023-04-01T03:16:46;9.00;99.90
26703;DHT22;14316;51.074;3.704;2023-04-01T03:19:12;9.00;99.90
26703;DHT22;14316;51.074;3.704;2023-04-01T03:21:38;9.00;99.90
26703;DHT22;14316;51.074;3.704;2023-04-01T03:24:05;9.00;99.90
26703;DHT22;14316;51.074;3.704;2023-04-01T03:26:32;9.00;99.90
26703;DHT22;14316;51.074;3.704;2023-04-01T03:28:58;9.00;99.90
26703;DHT22;14316;51.074;3.704;2023-04-01T03:31:24;9.00;99.90
26703;DHT22;14316;51.074;3.704;2023-04-01T03:33:50;9.00;99.90
26703;DHT22;14316;51.074;3.704;2023-04-01T03:36:17;9.00;99.90
26703;DHT22;14316;51.074;3.704;2023-04-01T03:38:44;9.00;99.90
26703;DHT22;14316;51.074;3.704;2023-04-01T03:41:17;9.00;99.90
26703;DHT22;14316;51.074;3.704;2023-04-01T03:43:44;9.00;99.90
26703;DHT22;14316;51.074;3.704;2023-04-01T03:46:10;9.00;99.90
26703;DHT22;14316;51.074;3.704;2023-04-01T03:48:36;9.00;99.90
26703;DHT22;14316;51.074;3.704;2023-04-01T03:51:06;9.00;99.90
26703;DHT22;14316;51.074;3.704;2023-04-01T03:53:33;8.90;99.90
26703;DHT22;14316;51.074;3.704;2023-04-01T03:56:02;8.90;99.90
26703;DHT22;14316;51.074;3.704;2023-04-01T03:58:29;8.90;99.90
26703;DHT22;14316;51.074;3.704;2023-04-01T04:00:55;8.90;99.90
26703;DHT22;14316;51.074;3.704;2023-04-01T04:03:21;8.90;99.90
26703;DHT22;14316;51.074;3.704;2023-04-01T04:05:49;8.90;99.90
26703;DHT22;14316;51.074;3.704;2023-04-01T04:08:15;8.90;99.90
26703;DHT22;14316;51.074;3.704;2023-04-01T04:10:42;8.90;99.90
26703;DHT22;14316;51.074;3.704;2023-04-01T04:13:09;8.90;99.90
26703;DHT22;14316;51.074;3.704;2023-04-01T04:15:35;8.90;99.90
26703;DHT22;14316;51.074;3.704;2023-04-01T04:18:01;9.00;99.90
26703;DHT22;14316;51.074;3.704;2023-04-01T04:20:27;8.90;99.90
26703;DHT22;14316;51.074;3.704;2023-04-01T04:22:53;8.90;99.90
26703;DHT22;14316;51.074;3.704;2023-04-01T04:25:20;8.90;99.90
26703;DHT22;14316;51.074;3.704;2023-04-01T04:27:45;8.90;99.90
26703;DHT22;14316;51.074;3.704;2023-04-01T04:30:12;8.90;99.90
26703;DHT22;14316;51.074;3.704;2023-04-01T04:32:37;8.90;99.90
26703;DHT22;14316;51.074;3.704;2023-04-01T04:35:04;8.90;99.90
26703;DHT22;14316;51.074;3.704;2023-04-01T04:37:32;8.80;99.90
26703;DHT22;14316;51.074;3.704;2023-04-01T04:39:58;8.80;99.90
26703;DHT22;14316;51.074;3.704;2023-04-01T04:42:24;8.90;99.90
26703;DHT22;14316;51.074;3.704;2023-04-01T04:44:50;8.90;99.90
26703;DHT22;14316;51.074;3.704;2023-04-01T04:47:16;8.90;99.90
26703;DHT22;14316;51.074;3.704;2023-04-01T04:49:43;8.90;99.90
26703;DHT22;14316;51.074;3.704;2023-04-01T04:52:09;8.90;99.90
26703;DHT22;14316;51.074;3.704;2023-04-01T04:54:35;8.90;99.90
26703;DHT22;14316;51.074;3.704;2023-04-01T04:57:00;8.90;99.90
26703;DHT22;14316;51.074;3.704;2023-04-01T04:59:27;8.90;99.90
26703;DHT22;14316;51.074;3.704;2023-04-01T05:01:53;8.90;99.90
26703;DHT22;14316;51.074;3.704;2023-04-01T05:04:19;8.80;99.90
26703;DHT22;14316;51.074;3.704;2023-04-01T05:06:45;8.80;99.90
26703;DHT22;14316;51.074;3.704;2023-04-01T05:09:11;8.90;99.90
26703;DHT22;14316;51.074;3.704;2023-04-01T05:11:37;8.90;99.90
26703;DHT22;14316;51.074;3.704;2023-04-01T05:14:04;8.90;99.90
26703;DHT22;14316;51.074;3.704;2023-04-01T05:16:30;8.80;99.90
26703;DHT22;14316;51.074;3.704;2023-04-01T05:18:57;8.80;99.90
26703;DHT22;14316;51.074;3.704;2023-04-01T05:21:23;8.80;99.90
26703;DHT22;14316;51.074;3.704;2023-04-01T05:23:49;8.80;99.90
26703;DHT22;14316;51.074;3.704;2023-04-01T05:26:15;8.90;99.90
26703;DHT22;14316;51.074;3.704;2023-04-01T05:28:41;8.80;99.90
26703;DHT22;14316;51.074;3.704;2023-04-01T05:31:08;8.80;99.90
26703;DHT22;14316;51.074;3.704;2023-04-01T05:33:35;8.70;99.90
26703;DHT22;14316;51.074;3.704;2023-04-01T05:36:09;8.70;99.90
26703;DHT22;14316;51.074;3.704;2023-04-01T05:38:35;8.70;99.90
26703;DHT22;14316;51.074;3.704;2023-04-01T05:41:02;8.70;99.90
26703;DHT22;14316;51.074;3.704;2023-04-01T05:43:28;8.70;99.90
26703;DHT22;14316;51.074;3.704;2023-04-01T05:45:56;8.70;99.90
26703;DHT22;14316;51.074;3.704;2023-04-01T05:48:23;8.70;99.90
26703;DHT22;14316;51.074;3.704;2023-04-01T05:50:49;8.70;99.90
26703;DHT22;14316;51.074;3.704;2023-04-01T05:53:15;8.70;99.90
26703;DHT22;14316;51.074;3.704;2023-04-01T05:55:41;8.70;99.90
26703;DHT22;14316;51.074;3.704;2023-04-01T05:58:07;8.70;99.90
26703;DHT22;14316;51.074;3.704;2023-04-01T06:00:33;8.70;99.90
26703;DHT22;14316;51.074;3.704;2023-04-01T06:02:59;8.70;99.90
26703;DHT22;14316;51.074;3.704;2023-04-01T06:05:29;8.70;99.90
26703;DHT22;14316;51.074;3.704;2023-04-01T06:07:59;8.60;99.90
26703;DHT22;14316;51.074;3.704;2023-04-01T06:13:25;8.60;99.90
26703;DHT22;14316;51.074;3.704;2023-04-01T06:19:13;8.60;99.90
26703;DHT22;14316;51.074;3.704;2023-04-01T06:27:46;8.60;99.90
26703;DHT22;14316;51.074;3.704;2023-04-01T06:30:30;8.70;99.90
26703;DHT22;14316;51.074;3.704;2023-04-01T06:38:39;8.60;99.90
26703;DHT22;14316;51.074;3.704;2023-04-01T06:44:21;8.70;99.90
26703;DHT22;14316;51.074;3.704;2023-04-01T06:46:59;8.60;99.90
26703;DHT22;14316;51.074;3.704;2023-04-01T06:50:01;8.70;99.90
26703;DHT22;14316;51.074;3.704;2023-04-01T06:56:21;8.70;99.90
26703;DHT22;14316;51.074;3.704;2023-04-01T07:01:39;8.70;99.90
26703;DHT22;14316;51.074;3.704;2023-04-01T07:04:32;8.70;99.90
26703;DHT22;14316;51.074;3.704;2023-04-01T07:07:10;8.70;99.90
26703;DHT22;14316;51.074;3.704;2023-04-01T07:09:43;8.70;99.90
26703;DHT22;14316;51.074;3.704;2023-04-01T07:14:51;8.80;99.90
26703;DHT22;14316;51.074;3.704;2023-04-01T07:17:27;8.80;99.90
26703;DHT22;14316;51.074;3.704;2023-04-01T07:20:22;8.80;99.90
26703;DHT22;14316;51.074;3.704;2023-04-01T07:22:56;8.80;99.90
26703;DHT22;14316;51.074;3.704;2023-04-01T07:25:26;8.80;99.90
26703;DHT22;14316;51.074;3.704;2023-04-01T07:28:06;8.80;99.90
26703;DHT22;14316;51.074;3.704;2023-04-01T07:33:45;8.80;99.90
26703;DHT22;14316;51.074;3.704;2023-04-01T07:41:49;8.90;99.90
26703;DHT22;14316;51.074;3.704;2023-04-01T07:52:27;8.80;99.90
26703;DHT22;14316;51.074;3.704;2023-04-01T07:55:03;8.80;99.90
26703;DHT22;14316;51.074;3.704;2023-04-01T07:57:43;8.80;99.90
26703;DHT22;14316;51.074;3.704;2023-04-01T08:00:27;8.80;99.90
26703;DHT22;14316;51.074;3.704;2023-04-01T08:06:13;8.80;99.90
26703;DHT22;14316;51.074;3.704;2023-04-01T08:09:47;8.90;99.90
26703;DHT22;14316;51.074;3.704;2023-04-01T08:12:13;8.90;99.90
26703;DHT22;14316;51.074;3.704;2023-04-01T08:17:16;9.00;99.90
26703;DHT22;14316;51.074;3.704;2023-04-01T08:22:30;9.00;99.90
26703;DHT22;14316;51.074;3.704;2023-04-01T08:25:02;9.00;99.90
26703;DHT22;14316;51.074;3.704;2023-04-01T08:27:39;9.00;99.90
26703;DHT22;14316;51.074;3.704;2023-04-01T08:30:35;9.00;99.90
26703;DHT22;14316;51.074;3.704;2023-04-01T08:33:15;9.00;99.90
26703;DHT22;14316;51.074;3.704;2023-04-01T08:47:24;8.90;99.90
26703;DHT22;14316;51.074;3.704;2023-04-01T09:05:05;9.20;99.90
26703;DHT22;14316;51.074;3.704;2023-04-01T09:18:09;9.80;99.90
26703;DHT22;14316;51.074;3.704;2023-04-01T09:28:54;9.70;99.90
26703;DHT22;14316;51.074;3.704;2023-04-01T09:31:51;9.60;99.90
26703;DHT22;14316;51.074;3.704;2023-04-01T09:39:37;9.60;99.90
26703;DHT22;14316;51.074;3.704;2023-04-01T09:44:42;9.60;99.90
26703;DHT22;14316;51.074;3.704;2023-04-01T09:47:37;9.60;99.90
26703;DHT22;14316;51.074;3.704;2023-04-01T09:58:58;9.50;99.90
26703;DHT22;14316;51.074;3.704;2023-04-01T10:01:49;9.50;99.90
26703;DHT22;14316;51.074;3.704;2023-04-01T10:13:17;9.50;99.90
26703;DHT22;14316;51.074;3.704;2023-04-01T10:18:46;9.50;99.90
26703;DHT22;14316;51.074;3.704;2023-04-01T10:53:11;9.70;99.90
26703;DHT22;14316;51.074;3.704;2023-04-01T11:01:22;9.60;99.90
26703;DHT22;14316;51.074;3.704;2023-04-01T11:04:21;9.80;99.90
26703;DHT22;14316;51.074;3.704;2023-04-01T11:26:38;9.70;99.90
26703;DHT22;14316;51.074;3.704;2023-04-01T11:44:26;9.70;99.90
26703;DHT22;14316;51.074;3.704;2023-04-01T11:47:30;9.70;99.90
26703;DHT22;14316;51.074;3.704;2023-04-01T11:53:22;9.80;99.90
26703;DHT22;14316;51.074;3.704;2023-04-01T12:07:36;9.70;99.90
26703;DHT22;14316;51.074;3.704;2023-04-01T12:10:19;9.70;99.90
26703;DHT22;14316;51.074;3.704;2023-04-01T12:15:56;9.80;99.90
26703;DHT22;14316;51.074;3.704;2023-04-01T12:18:36;10.00;99.90
26703;DHT22;14316;51.074;3.704;2023-04-01T12:21:19;10.10;99.90
26703;DHT22;14316;51.074;3.704;2023-04-01T12:32:30;9.90;99.90
26703;DHT22;14316;51.074;3.704;2023-04-01T12:40:46;9.60;99.90
26703;DHT22;14316;51.074;3.704;2023-04-01T12:56:59;9.50;99.90
26703;DHT22;14316;51.074;3.704;2023-04-01T13:19:21;9.40;99.90
26703;DHT22;14316;51.074;3.704;2023-04-01T13:25:00;9.60;99.90
26703;DHT22;14316;51.074;3.704;2023-04-01T13:27:44;9.50;99.90
26703;DHT22;14316;51.074;3.704;2023-04-01T13:38:08;9.60;99.90
26703;DHT22;14316;51.074;3.704;2023-04-01T13:41:00;9.50;99.90
26703;DHT22;14316;51.074;3.704;2023-04-01T13:43:43;9.50;99.90
26703;DHT22;14316;51.074;3.704;2023-04-01T13:54:29;9.50;99.90
26703;DHT22;14316;51.074;3.704;2023-04-01T14:08:48;9.70;99.90
26703;DHT22;14316;51.074;3.704;2023-04-01T14:14:14;9.80;99.90
26703;DHT22;14316;51.074;3.704;2023-04-01T14:22:29;9.60;99.90
26703;DHT22;14316;51.074;3.704;2023-04-01T14:27:50;9.70;99.90
26703;DHT22;14316;51.074;3.704;2023-04-01T14:36:04;10.00;99.90
26703;DHT22;14316;51.074;3.704;2023-04-01T14:44:10;9.90;99.90
26703;DHT22;14316;51.074;3.704;2023-04-01T14:51:56;9.80;99.90
26703;DHT22;14316;51.074;3.704;2023-04-01T14:54:36;9.80;99.90
26703;DHT22;14316;51.074;3.704;2023-04-01T14:57:27;9.80;99.90
26703;DHT22;14316;51.074;3.704;2023-04-01T15:05:15;9.70;99.90
26703;DHT22;14316;51.074;3.704;2023-04-01T15:08:05;9.60;99.90
26703;DHT22;14316;51.074;3.704;2023-04-01T15:18:18;9.50;99.90
26703;DHT22;14316;51.074;3.704;2023-04-01T15:48:57;9.50;99.90
26703;DHT22;14316;51.074;3.704;2023-04-01T15:51:41;9.40;99.90
26703;DHT22;14316;51.074;3.704;2023-04-01T16:07:48;9.50;99.90
26703;DHT22;14316;51.074;3.704;2023-04-01T16:22:00;9.30;99.90
26703;DHT22;14316;51.074;3.704;2023-04-01T16:24:45;9.20;99.90
26703;DHT22;14316;51.074;3.704;2023-04-01T16:27:45;9.30;99.90
26703;DHT22;14316;51.074;3.704;2023-04-01T16:30:42;9.20;99.90
26703;DHT22;14316;51.074;3.704;2023-04-01T16:33:23;9.30;99.90
26703;DHT22;14316;51.074;3.704;2023-04-01T16:36:20;9.20;99.90
26703;DHT22;14316;51.074;3.704;2023-04-01T16:41:38;9.10;99.90
26703;DHT22;14316;51.074;3.704;2023-04-01T16:46:44;9.10;99.90
26703;DHT22;14316;51.074;3.704;2023-04-01T16:54:31;9.10;99.90
26703;DHT22;14316;51.074;3.704;2023-04-01T16:59:39;9.10;99.90
26703;DHT22;14316;51.074;3.704;2023-04-01T17:10:18;9.40;99.90
26703;DHT22;14316;51.074;3.704;2023-04-01T17:15:51;9.60;99.90
26703;DHT22;14316;51.074;3.704;2023-04-01T17:18:46;9.60;99.90
26703;DHT22;14316;51.074;3.704;2023-04-01T17:21:53;9.40;99.90
26703;DHT22;14316;51.074;3.704;2023-04-01T17:30:17;9.40;99.90
26703;DHT22;14316;51.074;3.704;2023-04-01T17:46:38;9.40;99.90
26703;DHT22;14316;51.074;3.704;2023-04-01T17:49:24;9.40;99.90
26703;DHT22;14316;51.074;3.704;2023-04-01T18:03:24;9.40;99.90
26703;DHT22;14316;51.074;3.704;2023-04-01T18:06:11;9.40;99.90
26703;DHT22;14316;51.074;3.704;2023-04-01T18:14:31;9.30;99.90
26703;DHT22;14316;51.074;3.704;2023-04-01T18:17:18;9.30;99.90
26703;DHT22;14316;51.074;3.704;2023-04-01T18:22:41;9.30;99.90
26703;DHT22;14316;51.074;3.704;2023-04-01T18:25:28;9.20;99.90
26703;DHT22;14316;51.074;3.704;2023-04-01T18:36:08;9.20;99.90
26703;DHT22;14316;51.074;3.704;2023-04-01T18:38:37;9.30;99.90
26703;DHT22;14316;51.074;3.704;2023-04-01T18:46:38;9.30;99.90
26703;DHT22;14316;51.074;3.704;2023-04-01T18:49:13;9.20;99.90
26703;DHT22;14316;51.074;3.704;2023-04-01T18:51:57;9.20;99.90
26703;DHT22;14316;51.074;3.704;2023-04-01T18:54:31;9.20;99.90
26703;DHT22;14316;51.074;3.704;2023-04-01T18:57:08;9.20;99.90
26703;DHT22;14316;51.074;3.704;2023-04-01T18:59:44;9.10;99.90
26703;DHT22;14316;51.074;3.704;2023-04-01T19:05:04;9.20;99.90
26703;DHT22;14316;51.074;3.704;2023-04-01T19:07:48;9.20;99.90
26703;DHT22;14316;51.074;3.704;2023-04-01T19:10:25;9.20;99.90
26703;DHT22;14316;51.074;3.704;2023-04-01T19:20:59;9.20;99.90
26703;DHT22;14316;51.074;3.704;2023-04-01T19:27:03;9.10;99.90
26703;DHT22;14316;51.074;3.704;2023-04-01T19:35:06;9.10;99.90
26703;DHT22;14316;51.074;3.704;2023-04-01T19:37:57;9.10;99.90
26703;DHT22;14316;51.074;3.704;2023-04-01T19:40:47;9.10;99.90
26703;DHT22;14316;51.074;3.704;2023-04-01T19:51:31;9.00;99.90
26703;DHT22;14316;51.074;3.704;2023-04-01T19:57:45;9.10;99.90
26703;DHT22;14316;51.074;3.704;2023-04-01T20:00:41;9.20;99.90
26703;DHT22;14316;51.074;3.704;2023-04-01T20:06:33;9.10;99.90
26703;DHT22;14316;51.074;3.704;2023-04-01T20:09:26;9.10;99.90
26703;DHT22;14316;51.074;3.704;2023-04-01T20:12:07;9.10;99.90
26703;DHT22;14316;51.074;3.704;2023-04-01T20:17:20;9.20;99.90
26703;DHT22;14316;51.074;3.704;2023-04-01T20:23:01;9.20;99.90
26703;DHT22;14316;51.074;3.704;2023-04-01T20:25:43;9.20;99.90
26703;DHT22;14316;51.074;3.704;2023-04-01T20:42:20;9.20;99.90
26703;DHT22;14316;51.074;3.704;2023-04-01T20:44:20;9.10;99.90
26703;DHT22;14316;51.074;3.704;2023-04-01T20:52:41;9.10;99.90
26703;DHT22;14316;51.074;3.704;2023-04-01T20:54:51;9.10;99.90
26703;DHT22;14316;51.074;3.704;2023-04-01T21:00:26;9.00;99.90
26703;DHT22;14316;51.074;3.704;2023-04-01T21:03:29;9.00;99.90
26703;DHT22;14316;51.074;3.704;2023-04-01T21:12:05;9.00;99.90
26703;DHT22;14316;51.074;3.704;2023-04-01T21:20:31;9.00;99.90
26703;DHT22;14316;51.074;3.704;2023-04-01T21:31:57;9.10;99.90
26703;DHT22;14316;51.074;3.704;2023-04-01T21:37:22;9.00;99.90
26703;DHT22;14316;51.074;3.704;2023-04-01T21:46:10;9.00;99.90
26703;DHT22;14316;51.074;3.704;2023-04-01T21:52:16;9.10;99.90
26703;DHT22;14316;51.074;3.704;2023-04-01T21:55:05;9.10;99.90
26703;DHT22;14316;51.074;3.704;2023-04-01T22:07:10;9.00;99.90
26703;DHT22;14316;51.074;3.704;2023-04-01T22:17:57;9.00;99.90
26703;DHT22;14316;51.074;3.704;2023-04-01T22:20:36;9.00;99.90
26703;DHT22;14316;51.074;3.704;2023-04-01T22:28:45;8.90;99.90
26703;DHT22;14316;51.074;3.704;2023-04-01T22:31:27;8.90;99.90
26703;DHT22;14316;51.074;3.704;2023-04-01T22:34:17;8.90;99.90
26703;DHT22;14316;51.074;3.704;2023-04-01T22:36:57;8.90;99.90
26703;DHT22;14316;51.074;3.704;2023-04-01T22:45:21;8.90;99.90
26703;DHT22;14316;51.074;3.704;2023-04-01T22:48:01;8.90;99.90
26703;DHT22;14316;51.074;3.704;2023-04-01T22:51:13;8.90;99.90
26703;DHT22;14316;51.074;3.704;2023-04-01T22:56:15;8.90;99.90
26703;DHT22;14316;51.074;3.704;2023-04-01T22:58:52;8.90;99.90
26703;DHT22;14316;51.074;3.704;2023-04-01T23:01:24;8.90;99.90
26703;DHT22;14316;51.074;3.704;2023-04-01T23:03:51;8.90;99.90
26703;DHT22;14316;51.074;3.704;2023-04-01T23:06:25;8.90;99.90
26703;DHT22;14316;51.074;3.704;2023-04-01T23:09:07;8.90;99.90
26703;DHT22;14316;51.074;3.704;2023-04-01T23:12:04;8.80;99.90
26703;DHT22;14316;51.074;3.704;2023-04-01T23:14:43;8.90;99.90
26703;DHT22;14316;51.074;3.704;2023-04-01T23:17:17;8.80;99.90
26703;DHT22;14316;51.074;3.704;2023-04-01T23:28:05;8.80;99.90
26703;DHT22;14316;51.074;3.704;2023-04-01T23:36:13;8.80;99.90
26703;DHT22;14316;51.074;3.704;2023-04-01T23:38:42;8.80;99.90
26703;DHT22;14316;51.074;3.704;2023-04-01T23:41:29;8.80;99.90
26703;DHT22;14316;51.074;3.704;2023-04-01T23:44:04;8.80;99.90
26703;DHT22;14316;51.074;3.704;2023-04-01T23:46:33;8.90;99.90
26703;DHT22;14316;51.074;3.704;2023-04-01T23:49:04;8.80;99.90
26703;DHT22;14316;51.074;3.704;2023-04-01T23:51:49;8.90;99.90
26703;DHT22;14316;51.074;3.704;2023-04-01T23:54:31;8.90;99.90
26703;DHT22;14316;51.074;3.704;2023-04-01T23:56:58;8.90;99.90
26703;DHT22;14316;51.074;3.704;2023-04-01T23:59:30;8.80;99.90
